Time;durP1;ratioP1;P1;durP2;ratioP2;P2;SDS_P1;SDS_P2;PMS_P1;PMS_P2;Temp;Humidity;BMP_temperature;BMP_pressure;BME280_temperature;BME280_humidity;BME280_pressure;Samples;Min_cycle;Max_cycle;Signal;HPM_P1;HPM_P2
2022/05/06 00:01:00;;;;;;;17.50;14.05;;;;;;;11.52;73.53;98953.59;5048420;28;20028;-82
2022/05/06 00:03:26;;;;;;;17.65;13.32;;;;;;;11.49;74.00;98956.09;5049397;28;20025;-82
2022/05/06 00:05:52;;;;;;;32.17;23.38;;;;;;;11.46;74.44;98957.50;5048891;28;20060;-82
2022/05/06 00:08:18;;;;;;;22.65;17.80;;;;;;;11.45;73.97;98961.34;5048841;28;20032;-83
2022/05/06 00:10:43;;;;;;;26.85;18.60;;;;;;;11.46;73.70;98957.50;5048923;28;20742;-82
2022/05/06 00:13:09;;;;;;;24.23;18.67;;;;;;;11.44;74.25;98957.78;5048094;28;20025;-83
2022/05/06 00:15:35;;;;;;;25.60;18.33;;;;;;;11.40;73.69;98956.75;5051857;28;20094;-82
2022/05/06 00:18:00;;;;;;;32.20;19.13;;;;;;;11.40;74.25;98959.50;5053046;28;20774;-82
2022/05/06 00:20:26;;;;;;;40.95;22.48;;;;;;;11.40;74.02;98950.41;5052581;28;20108;-79
2022/05/06 00:22:51;;;;;;;39.17;23.73;;;;;;;11.39;74.15;98954.28;5052570;28;20481;-81
2022/05/06 00:25:17;;;;;;;34.75;21.00;;;;;;;11.35;74.21;98955.94;5051453;28;20075;-81
2022/05/06 00:27:42;;;;;;;35.38;20.83;;;;;;;11.29;73.57;98949.69;5052512;28;20025;-84
2022/05/06 00:30:09;;;;;;;36.20;21.25;;;;;;;11.23;73.93;98946.16;5052748;28;20025;-83
2022/05/06 00:32:34;;;;;;;35.00;21.52;;;;;;;11.16;73.76;98957.50;5052218;28;20035;-81
2022/05/06 00:35:00;;;;;;;30.40;19.85;;;;;;;11.10;74.25;98952.34;5052618;28;20025;-83
2022/05/06 00:37:26;;;;;;;25.17;18.25;;;;;;;11.06;74.15;98948.53;5052068;28;20082;-83
2022/05/06 00:39:51;;;;;;;27.63;17.77;;;;;;;10.96;73.88;98938.47;5051061;28;20098;-83
2022/05/06 00:42:17;;;;;;;28.00;18.70;;;;;;;10.91;73.88;98939.31;5052273;28;20040;-84
2022/05/06 00:44:42;;;;;;;27.85;18.42;;;;;;;10.84;74.09;98939.63;5052164;28;20017;-84
2022/05/06 00:47:09;;;;;;;23.88;16.70;;;;;;;10.77;73.42;98947.38;5052166;28;20025;-83
2022/05/06 00:49:37;;;;;;;25.88;18.35;;;;;;;10.72;73.85;98944.66;5052062;28;20021;-82
2022/05/06 00:52:04;;;;;;;24.83;17.00;;;;;;;10.66;73.60;98945.78;5051488;28;20048;-83
2022/05/06 00:54:34;;;;;;;19.58;14.65;;;;;;;10.62;73.72;98955.69;5051056;28;20032;-83
2022/05/06 00:56:59;;;;;;;25.33;18.60;;;;;;;10.58;74.07;98960.94;5050902;28;20028;-83
2022/05/06 00:59:25;;;;;;;20.38;15.57;;;;;;;10.53;74.03;98966.44;5050602;28;20016;-84
2022/05/06 01:01:50;;;;;;;18.20;14.20;;;;;;;10.52;74.44;98968.41;5051800;28;20028;-84
2022/05/06 01:04:17;;;;;;;16.80;13.55;;;;;;;10.52;74.12;98965.66;5051877;28;20025;-83
2022/05/06 01:06:44;;;;;;;17.27;13.85;;;;;;;10.50;74.05;98964.28;5051991;28;20021;-83
2022/05/06 01:09:17;;;;;;;19.85;14.65;;;;;;;10.49;73.63;98971.69;5050339;28;20032;-83
2022/05/06 01:11:44;;;;;;;18.90;14.57;;;;;;;10.47;74.21;98965.69;5051222;28;20037;-83
2022/05/06 01:14:09;;;;;;;21.10;15.82;;;;;;;10.46;74.41;98971.44;5051529;28;20023;-83
2022/05/06 01:16:36;;;;;;;18.77;14.63;;;;;;;10.43;74.45;98973.63;5051654;28;20029;-83
2022/05/06 01:19:03;;;;;;;16.33;13.00;;;;;;;10.41;75.09;98975.84;5051560;28;20090;-84
2022/05/06 01:21:34;;;;;;;17.13;12.80;;;;;;;10.40;74.11;98976.94;5047616;28;20162;-83
2022/05/06 01:24:01;;;;;;;17.30;13.10;;;;;;;10.36;74.57;98977.75;5051970;28;20025;-83
2022/05/06 01:26:57;;;;;;;15.68;12.38;;;;;;;10.36;74.67;98980.50;5050883;28;20108;-83
2022/05/06 01:29:22;;;;;;;17.10;13.73;;;;;;;10.38;74.38;98981.88;5051739;28;20029;-83
2022/05/06 01:31:51;;;;;;;19.38;14.43;;;;;;;10.41;74.33;98986.00;5050027;28;20459;-83
2022/05/06 01:34:17;;;;;;;21.58;14.35;;;;;;;10.44;74.85;98985.44;5052178;28;20075;-83
2022/05/06 01:36:46;;;;;;;19.30;14.63;;;;;;;10.46;74.83;98983.22;5051824;28;20025;-83
2022/05/06 01:39:15;;;;;;;21.38;15.18;;;;;;;10.49;74.78;98973.59;5050525;28;20029;-83
2022/05/06 01:41:45;;;;;;;19.42;14.75;;;;;;;10.52;75.08;98986.75;5050064;28;20024;-83
2022/05/06 01:44:14;;;;;;;20.42;15.43;;;;;;;10.52;75.16;98979.38;5051607;28;20035;-83
2022/05/06 01:46:40;;;;;;;21.00;16.17;;;;;;;10.56;74.31;98983.19;5051145;28;20041;-83
2022/05/06 01:49:07;;;;;;;22.15;15.10;;;;;;;10.59;74.56;98983.72;5051639;28;20549;-82
2022/05/06 01:51:33;;;;;;;19.63;14.93;;;;;;;10.62;75.30;98980.38;5050092;28;20036;-83
2022/05/06 01:53:59;;;;;;;19.75;14.73;;;;;;;10.70;75.00;98969.66;5051494;28;20053;-83
2022/05/06 01:56:25;;;;;;;20.25;14.82;;;;;;;10.76;74.75;98961.38;5051386;28;20059;-83
2022/05/06 01:58:51;;;;;;;19.42;14.38;;;;;;;10.79;75.22;98964.38;5051319;28;20461;-83
2022/05/06 02:01:17;;;;;;;22.38;15.00;;;;;;;10.83;75.13;98956.38;5050631;28;20033;-83
2022/05/06 02:06:27;;;;;;;21.60;15.57;;;;;;;10.92;75.24;98964.84;5051103;28;20048;-83
2022/05/06 02:08:52;;;;;;;20.20;14.93;;;;;;;10.95;74.78;98973.31;5051032;28;20021;-83
2022/05/06 02:11:18;;;;;;;21.42;15.43;;;;;;;10.96;74.98;98983.19;5050855;28;20036;-83
2022/05/06 02:13:45;;;;;;;21.52;16.27;;;;;;;10.96;75.08;98996.09;5051277;28;20029;-84
2022/05/06 02:16:10;;;;;;;21.00;15.32;;;;;;;10.94;75.51;99003.78;5050627;28;20025;-83
2022/05/06 02:18:36;;;;;;;19.48;14.55;;;;;;;10.93;75.61;99010.38;5049502;28;20052;-83
2022/05/06 02:21:01;;;;;;;19.05;14.52;;;;;;;10.93;75.70;99019.44;5050547;28;20087;-83
2022/05/06 02:23:27;;;;;;;24.23;17.15;;;;;;;10.95;75.82;99011.72;5051010;28;20025;-83
2022/05/06 02:25:53;;;;;;;25.30;18.05;;;;;;;10.97;74.95;99004.03;5050788;28;20036;-83
2022/05/06 02:28:19;;;;;;;27.40;17.60;;;;;;;10.96;75.45;99009.81;5050666;28;20079;-83
2022/05/06 02:33:31;;;;;;;30.58;20.42;;;;;;;10.92;76.01;99015.03;5050614;28;20151;-83
2022/05/06 02:35:57;;;;;;;31.25;20.13;;;;;;;10.93;76.49;99010.38;5050532;28;20100;-83
2022/05/06 02:38:25;;;;;;;36.45;22.77;;;;;;;10.93;76.02;99013.94;5049463;28;20055;-83
2022/05/06 02:40:51;;;;;;;34.63;22.25;;;;;;;10.92;76.58;99014.25;5049831;28;20144;-82
2022/05/06 02:43:17;;;;;;;37.08;23.73;;;;;;;10.95;76.85;99008.19;5050686;28;20096;-83
2022/05/06 02:45:43;;;;;;;42.17;25.00;;;;;;;10.96;76.49;99007.88;5050264;28;20549;-82
2022/05/06 02:48:09;;;;;;;45.42;28.05;;;;;;;10.99;76.57;99006.50;5050333;28;20017;-82
2022/05/06 02:50:35;;;;;;;47.42;30.13;;;;;;;11.00;76.52;99005.41;5050060;28;20028;-83
2022/05/06 02:53:01;;;;;;;48.08;29.00;;;;;;;11.07;77.02;99005.06;5050095;28;20108;-83
2022/05/06 02:55:28;;;;;;;50.90;29.45;;;;;;;11.16;77.25;98997.88;5050440;28;20035;-83
2022/05/06 02:57:53;;;;;;;46.72;27.17;;;;;;;11.25;77.34;99003.56;5049830;28;20031;-83
2022/05/06 03:00:19;;;;;;;43.72;27.08;;;;;;;11.30;77.15;98998.03;5049589;28;20025;-83
2022/05/06 03:02:44;;;;;;;43.13;26.58;;;;;;;11.34;76.91;98999.09;5048749;28;20045;-83
2022/05/06 03:05:10;;;;;;;46.65;27.73;;;;;;;11.40;76.80;98997.09;5050202;28;20484;-83
2022/05/06 03:07:36;;;;;;;48.28;27.20;;;;;;;11.46;76.95;99004.19;5049046;28;20082;-83
2022/05/06 03:10:03;;;;;;;39.10;25.48;;;;;;;11.50;76.90;99009.91;5048375;28;20029;-83
2022/05/06 03:12:30;;;;;;;44.15;25.88;;;;;;;11.52;77.13;99004.97;5049868;28;20112;-82
2022/05/06 03:14:58;;;;;;;43.65;26.95;;;;;;;11.57;76.70;99005.75;5048394;28;20024;-82
2022/05/06 03:17:24;;;;;;;41.72;25.45;;;;;;;11.62;76.58;99011.16;5050009;28;20096;-82
2022/05/06 03:19:49;;;;;;;52.47;29.23;;;;;;;11.66;76.56;99018.81;5050332;28;20041;-82
2022/05/06 03:22:16;;;;;;;51.63;29.13;;;;;;;11.67;76.27;99014.97;5050903;28;20032;-82
2022/05/06 03:24:43;;;;;;;51.65;28.45;;;;;;;11.66;76.64;99016.09;5050685;28;20092;-82
2022/05/06 03:27:59;;;;;;;49.85;30.17;;;;;;;11.68;77.00;99022.94;5050934;28;20025;-82
2022/05/06 03:29:53;;;;;;;48.97;28.55;;;;;;;11.73;76.54;99014.66;5049475;28;20037;-82
2022/05/06 03:32:19;;;;;;;48.33;28.73;;;;;;;11.79;76.59;99017.34;5050089;28;20032;-81
2022/05/06 03:34:44;;;;;;;48.00;27.48;;;;;;;11.83;76.91;99023.88;5050240;28;20104;-82
2022/05/06 03:37:10;;;;;;;48.33;28.73;;;;;;;11.84;76.69;99020.84;5050460;28;20025;-82
2022/05/06 03:39:35;;;;;;;49.05;29.15;;;;;;;11.88;76.91;99023.84;5049999;28;20032;-82
2022/05/06 03:42:01;;;;;;;49.97;29.48;;;;;;;11.91;76.57;99018.59;5048789;28;20572;-81
2022/05/06 03:44:27;;;;;;;50.45;28.25;;;;;;;11.95;76.22;99018.00;5050134;28;20032;-82
2022/05/06 03:46:52;;;;;;;44.42;25.98;;;;;;;11.96;76.13;99003.16;5049743;28;20474;-81
2022/05/06 03:49:17;;;;;;;40.53;25.60;;;;;;;11.99;77.08;99017.16;5048591;28;20025;-82
2022/05/06 03:51:47;;;;;;;44.13;26.80;;;;;;;11.98;76.24;99009.19;5049958;28;20116;-82
2022/05/06 03:54:12;;;;;;;40.50;24.70;;;;;;;11.96;76.15;99000.41;5050417;28;20547;-82
2022/05/06 03:56:38;;;;;;;39.05;23.77;;;;;;;11.97;76.65;99010.28;5050546;28;20037;-81
2022/05/06 03:59:03;;;;;;;41.22;24.52;;;;;;;11.96;76.94;99017.69;5049796;28;20140;-81
2022/05/06 04:01:29;;;;;;;38.72;24.00;;;;;;;11.96;76.80;99017.69;5050209;28;20036;-82
2022/05/06 04:03:54;;;;;;;30.58;19.60;;;;;;;11.96;77.21;99016.91;5049382;28;20025;-82
2022/05/06 04:06:20;;;;;;;36.60;23.05;;;;;;;11.91;76.66;99017.75;5049915;28;20412;-82
2022/05/06 04:08:46;;;;;;;36.10;22.83;;;;;;;11.92;76.39;99022.13;5050160;28;20462;-82
2022/05/06 04:11:12;;;;;;;32.45;21.77;;;;;;;11.95;77.18;99024.31;5049689;28;20159;-82
2022/05/06 04:13:38;;;;;;;33.05;22.20;;;;;;;12.01;76.63;99016.88;5049871;28;20021;-81
2022/05/06 04:16:04;;;;;;;32.97;20.88;;;;;;;12.06;76.78;99017.63;5049942;28;20551;-82
2022/05/06 04:18:30;;;;;;;30.05;20.40;;;;;;;12.10;77.24;99019.78;5049852;28;20052;-82
2022/05/06 04:23:40;;;;;;;33.75;21.88;;;;;;;12.11;76.86;99011.25;5050362;28;20059;-82
2022/05/06 04:26:07;;;;;;;34.58;21.48;;;;;;;12.15;76.83;99017.00;5048589;28;20033;-82
2022/05/06 04:28:34;;;;;;;33.97;22.35;;;;;;;12.18;76.53;99027.41;5049714;28;20039;-81
2022/05/06 04:31:00;;;;;;;34.03;21.63;;;;;;;12.21;76.46;99019.38;5049079;28;20032;-82
2022/05/06 04:33:26;;;;;;;36.97;22.27;;;;;;;12.26;76.58;99026.72;5049901;28;20025;-82
2022/05/06 04:35:53;;;;;;;37.30;21.58;;;;;;;12.33;76.62;99026.41;5050038;28;20104;-81
2022/05/06 04:38:20;;;;;;;35.25;20.80;;;;;;;12.37;76.57;99024.69;5048706;28;20021;-81
2022/05/06 04:40:46;;;;;;;35.35;21.60;;;;;;;12.41;76.60;99014.75;5049635;28;20404;-82
2022/05/06 04:43:11;;;;;;;39.05;23.52;;;;;;;12.44;76.71;99022.38;5049737;28;20044;-82
2022/05/06 04:45:41;;;;;;;39.95;23.63;;;;;;;12.45;76.75;99026.78;5049674;28;20052;-82
2022/05/06 04:48:08;;;;;;;40.55;22.85;;;;;;;12.47;76.85;99019.03;5049748;28;20094;-82
2022/05/06 04:50:37;;;;;;;37.92;22.35;;;;;;;12.50;76.39;99028.66;5049214;28;20110;-81
2022/05/06 04:53:07;;;;;;;38.38;23.10;;;;;;;12.53;76.37;99027.22;5048079;28;20063;-81
2022/05/06 04:55:35;;;;;;;44.70;23.85;;;;;;;12.59;76.71;99029.66;5049151;28;20062;-82
2022/05/06 04:58:02;;;;;;;44.33;24.03;;;;;;;12.66;76.53;99035.56;5049682;28;20029;-82
2022/05/06 05:00:28;;;;;;;42.10;23.88;;;;;;;12.68;76.71;99039.97;5048473;28;20294;-81
2022/05/06 05:02:54;;;;;;;48.65;25.33;;;;;;;12.64;76.55;99042.50;5053242;28;20029;-82
2022/05/06 05:05:19;;;;;;;48.83;25.15;;;;;;;12.59;76.82;99054.41;5053111;28;20414;-82
2022/05/06 05:07:44;;;;;;;43.05;23.95;;;;;;;12.55;76.30;99058.03;5053241;28;20027;-82
2022/05/06 05:10:10;;;;;;;43.17;24.25;;;;;;;12.54;76.51;99056.38;5053136;28;20029;-81
2022/05/06 05:12:36;;;;;;;48.38;25.10;;;;;;;12.56;77.06;99065.16;5052938;28;20044;-82
2022/05/06 05:15:02;;;;;;;44.05;23.90;;;;;;;12.59;77.09;99064.56;5053135;28;20025;-81
2022/05/06 05:17:28;;;;;;;41.67;23.98;;;;;;;12.62;76.92;99066.75;5053427;28;20035;-82
2022/05/06 05:19:53;;;;;;;46.03;24.27;;;;;;;12.64;77.05;99065.31;5053023;28;20025;-82
2022/05/06 05:22:19;;;;;;;37.95;22.17;;;;;;;12.64;77.87;99062.56;5052925;28;20053;-81
2022/05/06 05:24:44;;;;;;;42.17;23.98;;;;;;;12.63;77.24;99074.69;5053264;28;20056;-82
2022/05/06 05:27:10;;;;;;;44.05;24.00;;;;;;;12.67;77.68;99069.44;5052760;28;20453;-82
2022/05/06 05:29:36;;;;;;;41.65;23.25;;;;;;;12.70;76.91;99060.59;5052771;28;20033;-82
2022/05/06 05:32:02;;;;;;;40.25;23.05;;;;;;;12.76;77.76;99067.66;5053115;28;20063;-82
2022/05/06 05:34:27;;;;;;;42.00;23.50;;;;;;;12.79;77.50;99077.25;5052798;28;20171;-82
2022/05/06 05:36:53;;;;;;;39.47;21.85;;;;;;;12.80;76.99;99068.72;5052614;28;20033;-82
2022/05/06 05:39:18;;;;;;;37.20;21.80;;;;;;;12.83;77.47;99069.25;5052773;28;20032;-81
2022/05/06 05:41:44;;;;;;;39.80;22.92;;;;;;;12.82;77.31;99082.16;5052287;28;20448;-82
2022/05/06 05:49:37;;;;;;;34.38;19.73;;;;;;;12.91;77.63;99096.91;5051185;28;20063;-82
2022/05/06 05:52:04;;;;;;;40.95;23.13;;;;;;;12.95;76.75;99100.72;5051454;28;20628;-82
2022/05/06 05:54:29;;;;;;;40.90;21.55;;;;;;;13.04;77.06;99097.31;5052153;28;20021;-82
2022/05/06 05:56:55;;;;;;;41.75;23.77;;;;;;;13.07;76.88;99097.53;5052392;28;20031;-82
2022/05/06 05:59:22;;;;;;;41.17;22.33;;;;;;;13.14;76.82;99099.09;5052284;28;20044;-82
2022/05/06 06:01:49;;;;;;;41.58;23.15;;;;;;;13.16;76.74;99102.38;5051459;28;20469;-83
2022/05/06 06:04:15;;;;;;;38.05;22.17;;;;;;;13.21;76.97;99094.03;5052284;28;20082;-83
2022/05/06 06:06:41;;;;;;;38.10;21.70;;;;;;;13.29;76.64;99100.78;5051842;28;20029;-83
2022/05/06 06:09:08;;;;;;;42.72;21.90;;;;;;;13.38;76.85;99099.00;5051624;28;20521;-82
2022/05/06 06:11:34;;;;;;;40.92;22.38;;;;;;;13.45;76.48;99104.97;5051703;28;20068;-83
2022/05/06 06:14:00;;;;;;;37.88;22.20;;;;;;;13.52;76.39;99104.59;5050953;28;20025;-82
2022/05/06 06:16:26;;;;;;;40.45;22.35;;;;;;;13.53;76.50;99107.03;5051986;28;20021;-83
2022/05/06 06:18:51;;;;;;;40.75;21.15;;;;;;;13.53;76.67;99106.25;5051969;28;20232;-80
2022/05/06 06:21:17;;;;;;;40.88;23.13;;;;;;;13.50;76.16;99104.09;5051363;28;20461;-82
2022/05/06 06:23:42;;;;;;;37.70;22.25;;;;;;;13.50;76.28;99107.66;5050002;28;20067;-81
2022/05/06 06:26:08;;;;;;;38.17;22.17;;;;;;;13.53;76.19;99111.75;5051620;28;20124;-82
2022/05/06 06:28:34;;;;;;;40.92;21.65;;;;;;;13.55;76.19;99113.06;5051504;28;20032;-82
2022/05/06 06:30:59;;;;;;;40.40;22.35;;;;;;;13.53;75.96;99120.81;5050832;28;20021;-81
2022/05/06 06:33:24;;;;;;;36.85;21.65;;;;;;;13.51;75.86;99116.75;5051524;28;20469;-81
2022/05/06 06:35:53;;;;;;;36.70;20.38;;;;;;;13.49;75.74;99122.53;5051399;28;20017;-80
2022/05/06 06:38:18;;;;;;;32.67;19.35;;;;;;;13.50;76.19;99120.63;5051239;28;20109;-80
2022/05/06 06:40:44;;;;;;;35.15;21.20;;;;;;;13.51;75.96;99119.50;5049387;28;20487;-80
2022/05/06 06:43:09;;;;;;;32.97;20.42;;;;;;;13.47;75.64;99129.47;5050782;28;20453;-80
2022/05/06 06:45:37;;;;;;;30.92;19.98;;;;;;;13.43;76.07;99134.78;5049494;28;20036;-80
2022/05/06 06:48:03;;;;;;;37.15;21.80;;;;;;;13.39;76.09;99144.72;5049180;28;20421;-80
2022/05/06 06:50:29;;;;;;;32.78;20.35;;;;;;;13.34;75.83;99140.09;5049364;28;20021;-81
2022/05/06 06:52:54;;;;;;;35.28;21.35;;;;;;;13.31;76.14;99135.19;5050066;28;20473;-80
2022/05/06 06:55:20;;;;;;;38.42;27.05;;;;;;;13.35;75.85;99136.22;5050917;28;20032;-80
2022/05/06 06:57:46;;;;;;;34.10;21.88;;;;;;;13.40;76.00;99141.66;5053514;28;20524;-81
2022/05/06 07:00:12;;;;;;;29.83;19.25;;;;;;;13.47;76.18;99140.50;5050945;28;20029;-80
2022/05/06 07:02:39;;;;;;;29.23;18.55;;;;;;;13.53;76.17;99147.59;5051462;28;20037;-80
2022/05/06 07:05:05;;;;;;;31.65;19.65;;;;;;;13.59;75.83;99149.16;5046963;28;20032;-81
2022/05/06 07:12:58;;;;;;;33.13;21.23;;;;;;;13.64;75.48;99132.53;5049832;28;20532;-85
2022/05/06 07:15:24;;;;;;;28.13;19.30;;;;;;;13.65;75.71;99141.59;5052346;28;20021;-85
2022/05/06 07:17:50;;;;;;;33.10;21.00;;;;;;;13.61;75.73;99133.13;5049956;28;20028;-83
2022/05/06 07:20:15;;;;;;;32.72;20.85;;;;;;;13.65;75.33;99147.13;5050308;28;20024;-82
2022/05/06 07:22:41;;;;;;;34.15;21.80;;;;;;;13.64;75.36;99138.03;5049566;28;20029;-81
2022/05/06 07:25:07;;;;;;;32.60;22.23;;;;;;;13.68;75.42;99143.75;5049773;28;20381;-83
2022/05/06 07:27:34;;;;;;;34.60;21.27;;;;;;;13.73;75.18;99135.41;5050057;28;20104;-81
2022/05/06 07:30:01;;;;;;;29.55;19.30;;;;;;;13.81;75.46;99151.28;5048037;28;20032;-84
2022/05/06 07:32:26;;;;;;;33.22;21.38;;;;;;;13.89;75.42;99151.69;5049144;28;20441;-84
2022/05/06 07:34:52;;;;;;;32.30;21.88;;;;;;;13.94;74.97;99149.69;5048836;28;20040;-82
2022/05/06 07:37:17;;;;;;;32.47;21.23;;;;;;;13.96;74.91;99154.88;5049400;28;20029;-81
2022/05/06 07:39:43;;;;;;;38.97;23.58;;;;;;;14.02;74.96;99148.16;5048729;28;20025;-82
2022/05/06 07:42:10;;;;;;;34.47;22.67;;;;;;;14.05;74.76;99150.31;5048700;28;20104;-74
2022/05/06 07:44:36;;;;;;;37.72;23.00;;;;;;;14.11;74.55;99154.63;5048219;28;20062;-82
2022/05/06 07:47:01;;;;;;;37.28;23.38;;;;;;;14.19;74.41;99157.81;5050295;28;20123;-77
2022/05/06 07:49:27;;;;;;;34.00;22.85;;;;;;;14.21;74.48;99167.41;5049387;28;20087;-82
2022/05/06 07:51:53;;;;;;;34.78;22.73;;;;;;;14.20;74.25;99163.03;5049237;28;20036;-81
2022/05/06 07:54:18;;;;;;;34.00;22.33;;;;;;;14.22;73.80;99169.06;5047922;28;20036;-79
2022/05/06 07:56:43;;;;;;;32.55;21.60;;;;;;;14.23;74.12;99165.16;5048886;28;20028;-78
2022/05/06 07:59:09;;;;;;;34.83;22.88;;;;;;;14.28;73.91;99161.50;5048087;28;20025;-79
2022/05/06 08:04:34;;;;;;;35.38;22.60;;;;;;;14.41;74.00;99173.69;5049523;28;20044;-77
2022/05/06 08:07:05;;;;;;;35.85;24.05;;;;;;;14.51;73.99;99172.69;5047377;28;20120;-82
2022/05/06 08:09:30;;;;;;;35.88;23.88;;;;;;;14.59;73.57;99177.50;5048533;28;20036;-81
2022/05/06 08:11:56;;;;;;;36.53;25.80;;;;;;;14.66;73.92;99177.91;5046972;28;20454;-83
2022/05/06 08:14:21;;;;;;;35.95;24.15;;;;;;;14.77;73.44;99175.81;5047379;28;20362;-82
2022/05/06 08:16:48;;;;;;;33.80;23.30;;;;;;;14.86;73.45;99179.50;5048500;28;20043;-80
2022/05/06 08:19:14;;;;;;;31.60;22.05;;;;;;;14.85;73.01;99177.03;5049093;28;20100;-77
2022/05/06 08:21:40;;;;;;;33.20;23.40;;;;;;;14.83;72.54;99173.75;5049116;28;20112;-76
2022/05/06 08:24:06;;;;;;;35.90;25.35;;;;;;;14.91;73.23;99175.78;5046716;28;20031;-79
2022/05/06 08:26:32;;;;;;;33.88;23.77;;;;;;;14.92;71.90;99176.59;5048882;28;20025;-78
2022/05/06 08:28:58;;;;;;;34.42;25.23;;;;;;;14.86;71.55;99182.25;5048896;28;20052;-76
2022/05/06 08:31:24;;;;;;;34.83;24.27;;;;;;;14.91;72.23;99183.25;5047649;28;20029;-82
2022/05/06 08:33:49;;;;;;;34.80;25.35;;;;;;;14.97;71.84;99177.34;5046587;28;20520;-78
2022/05/06 08:36:14;;;;;;;36.55;25.85;;;;;;;15.09;72.25;99179.56;5051155;28;20077;-77
2022/05/06 08:38:40;;;;;;;33.85;24.85;;;;;;;15.16;71.63;99185.50;5053928;28;20025;-77
2022/05/06 08:41:06;;;;;;;36.08;24.27;;;;;;;15.25;71.24;99182.00;5048262;28;20074;-79
2022/05/06 08:43:32;;;;;;;35.25;25.38;;;;;;;15.31;71.13;99180.75;5051216;28;20029;-81
2022/05/06 08:51:33;;;;;;;38.35;26.92;;;;;;;15.59;71.21;99184.25;5052174;28;20048;-82
2022/05/06 08:53:59;;;;;;;41.63;32.08;;;;;;;15.61;70.49;99187.53;5051523;28;20061;-79
2022/05/06 08:56:25;;;;;;;38.67;26.58;;;;;;;15.59;69.98;99191.75;5051376;28;20025;-83
2022/05/06 08:58:50;;;;;;;35.13;26.30;;;;;;;15.62;70.32;99189.16;5051477;28;20025;-84
2022/05/06 09:01:21;;;;;;;39.90;27.83;;;;;;;15.73;70.50;99188.94;5051014;28;20017;-84
2022/05/06 09:03:48;;;;;;;50.92;33.20;;;;;;;15.87;69.94;99177.84;5052277;28;20021;-84
2022/05/06 09:06:21;;;;;;;39.42;27.05;;;;;;;16.02;70.38;99184.94;5051912;28;20404;-81
2022/05/06 09:08:48;;;;;;;38.13;27.30;;;;;;;16.20;70.25;99175.63;5050101;28;20055;-78
2022/05/06 09:11:17;;;;;;;35.58;26.58;;;;;;;16.33;69.99;99179.44;5048926;28;20425;-79
2022/05/06 09:13:55;;;;;;;38.47;27.02;;;;;;;16.39;69.05;99177.34;5048607;28;20496;-82
2022/05/06 09:16:44;;;;;;;34.55;25.73;;;;;;;16.48;68.79;99185.72;5051118;28;20524;-83
2022/05/06 09:19:28;;;;;;;33.70;24.98;;;;;;;16.54;69.14;99189.97;5052475;28;20064;-83
2022/05/06 09:22:00;;;;;;;32.95;25.02;;;;;;;16.67;68.84;99182.72;5050964;28;20115;-83
2022/05/06 09:24:29;;;;;;;32.47;24.70;;;;;;;16.71;68.21;99188.44;5051143;28;20024;-82
2022/05/06 09:27:00;;;;;;;35.33;25.45;;;;;;;16.68;67.62;99198.19;5050821;28;20021;-81
2022/05/06 09:29:39;;;;;;;35.15;25.13;;;;;;;16.64;67.29;99197.19;5049737;28;20106;-74
2022/05/06 09:32:16;;;;;;;35.83;26.13;;;;;;;16.67;67.02;99204.88;5052340;28;20036;-74
2022/05/06 09:34:42;;;;;;;35.08;26.40;;;;;;;16.81;67.58;99199.22;5051984;28;20079;-75
2022/05/06 09:37:08;;;;;;;33.67;24.80;;;;;;;17.02;67.33;99198.66;5050898;28;20060;-74
2022/05/06 09:39:33;;;;;;;32.97;25.23;;;;;;;17.12;66.89;99187.28;5050641;28;20068;-74
2022/05/06 09:42:04;;;;;;;33.92;25.13;;;;;;;17.20;66.57;99199.53;5051925;28;20085;-78
2022/05/06 09:44:31;;;;;;;34.03;24.67;;;;;;;17.26;66.73;99192.69;5052328;28;20062;-77
2022/05/06 09:47:11;;;;;;;33.15;24.42;;;;;;;17.34;66.14;99193.84;5051046;28;20037;-79
2022/05/06 09:49:43;;;;;;;31.38;23.50;;;;;;;17.49;66.57;99198.13;5050180;28;20036;-76
2022/05/06 09:52:10;;;;;;;32.33;24.17;;;;;;;17.59;65.56;99188.66;5048547;28;20538;-82
2022/05/06 09:54:35;;;;;;;30.45;23.88;;;;;;;17.64;65.40;99189.31;5050220;28;20144;-75
2022/05/06 09:57:05;;;;;;;32.60;24.60;;;;;;;17.71;64.99;99191.63;5050017;28;20675;-77
2022/05/06 09:59:31;;;;;;;28.77;22.40;;;;;;;17.70;64.90;99199.13;5049584;28;20037;-78
2022/05/06 10:01:56;;;;;;;31.50;23.65;;;;;;;17.63;64.33;99198.78;5050090;28;20033;-78
2022/05/06 10:04:22;;;;;;;26.00;21.30;;;;;;;17.61;64.18;99189.16;5051126;28;20025;-78
2022/05/06 10:06:49;;;;;;;27.35;21.38;;;;;;;17.64;64.53;99182.97;5049633;28;20025;-79
2022/05/06 10:09:21;;;;;;;26.73;21.58;;;;;;;17.65;64.43;99187.38;5050857;28;20028;-78
2022/05/06 10:11:49;;;;;;;29.52;23.20;;;;;;;17.59;64.53;99183.94;5048523;28;20067;-76
2022/05/06 10:14:15;;;;;;;31.92;23.90;;;;;;;17.56;64.97;99179.03;5051556;28;20029;-78
2022/05/06 10:16:41;;;;;;;30.42;23.92;;;;;;;17.55;64.92;99185.72;5047170;28;20436;-79
2022/05/06 10:19:27;;;;;;;30.13;23.67;;;;;;;17.48;64.02;99191.75;5046997;28;20049;-78
2022/05/06 10:21:55;;;;;;;28.88;23.30;;;;;;;17.49;64.48;99195.34;5049147;28;20091;-76
2022/05/06 10:24:20;;;;;;;29.02;23.50;;;;;;;17.43;63.88;99191.91;5050312;28;20449;-77
2022/05/06 10:26:48;;;;;;;31.10;23.88;;;;;;;17.31;63.91;99189.78;5051901;28;20020;-77
2022/05/06 10:35:02;;;;;;;32.30;24.80;;;;;;;16.98;64.23;99190.19;5049001;28;20087;-78
2022/05/06 10:37:45;;;;;;;31.50;23.17;;;;;;;16.88;64.13;99182.97;5047680;28;20036;-78
2022/05/06 10:40:23;;;;;;;32.30;24.33;;;;;;;16.80;64.46;99175.44;5045892;28;20037;-79
2022/05/06 10:42:49;;;;;;;33.90;24.27;;;;;;;16.80;64.08;99167.94;5047374;28;20040;-80
2022/05/06 10:45:32;;;;;;;29.58;23.40;;;;;;;16.82;64.05;99173.16;5044528;28;21137;-80
2022/05/06 10:47:58;;;;;;;28.58;22.45;;;;;;;16.89;64.13;99175.47;5048187;28;20037;-75
2022/05/06 10:50:29;;;;;;;33.80;24.85;;;;;;;16.92;64.81;99172.84;5044851;28;20552;-77
2022/05/06 10:52:55;;;;;;;30.35;23.10;;;;;;;16.95;64.33;99176.94;5048100;28;20547;-77
2022/05/06 10:55:23;;;;;;;31.48;23.63;;;;;;;16.97;64.30;99174.69;5046177;28;20056;-76
2022/05/06 10:57:54;;;;;;;33.80;24.45;;;;;;;17.07;64.30;99166.09;5045855;28;20029;-76
2022/05/06 11:00:23;;;;;;;33.05;24.75;;;;;;;17.14;63.06;99173.94;5048336;28;20118;-77
2022/05/06 11:02:49;;;;;;;36.42;26.98;;;;;;;17.17;63.86;99161.38;5047066;28;20120;-77
2022/05/06 11:05:17;;;;;;;35.80;26.00;;;;;;;17.28;64.13;99159.94;5048347;28;20064;-76
2022/05/06 11:07:45;;;;;;;36.38;27.17;;;;;;;17.41;63.51;99161.75;5051250;28;20048;-78
2022/05/06 11:10:21;;;;;;;35.58;25.17;;;;;;;17.53;63.46;99154.72;5051021;28;20040;-78
2022/05/06 11:12:50;;;;;;;33.15;26.48;;;;;;;17.59;62.38;99145.09;5051709;28;20033;-78
2022/05/06 11:15:18;;;;;;;28.27;22.75;;;;;;;17.65;63.08;99143.00;5043470;28;20040;-77
2022/05/06 11:17:45;;;;;;;28.20;22.13;;;;;;;17.74;62.50;99141.00;5048154;28;20451;-77
2022/05/06 11:20:29;;;;;;;30.90;23.00;;;;;;;17.79;62.09;99137.25;5047900;28;20935;-77
2022/05/06 11:22:57;;;;;;;32.33;23.30;;;;;;;17.74;62.42;99141.00;5048523;28;20183;-77
2022/05/06 11:25:24;;;;;;;30.38;22.40;;;;;;;17.72;62.07;99140.53;5046263;28;20075;-77
2022/05/06 11:27:54;;;;;;;30.85;22.98;;;;;;;17.71;61.60;99144.47;5046011;28;20510;-77
2022/05/06 11:30:20;;;;;;;;;;;;;;;17.67;61.98;99154.56;5047800;28;20097;-77
2022/05/06 11:32:51;;;;;;;28.63;22.95;;;;;;;17.70;61.17;99154.72;5046274;28;19932;-77
2022/05/06 11:35:30;;;;;;;29.20;21.63;;;;;;;17.78;61.29;99155.06;5048577;28;20338;-78
2022/05/06 11:37:55;;;;;;;26.00;21.92;;;;;;;17.90;61.69;99158.00;5049343;28;20028;-77
2022/05/06 11:40:34;;;;;;;28.33;22.52;;;;;;;18.12;62.17;99159.78;5047409;28;20033;-76
2022/05/06 11:43:04;;;;;;;26.88;21.23;;;;;;;18.29;61.75;99156.16;5048559;28;20025;-77
2022/05/06 11:48:20;;;;;;;26.60;21.27;;;;;;;18.37;60.66;99168.38;5049563;28;20040;-76
2022/05/06 11:50:50;;;;;;;24.88;21.27;;;;;;;18.43;60.50;99169.00;5049329;28;21462;-76
2022/05/06 11:53:17;;;;;;;;;;;;;;;18.48;60.92;99173.56;5050756;28;20036;-76